2012 TSU Turkey Trot

Overall Finish List

November 17, 2012


Results By:Race Day Event Services Race Day Event Services

5K

Place Name City Bib No Age Gender Age Group Total Time Pace
1 TYE DOTY EDDY TX 230 99 M 1 Top Fin 17:35.4 5:10/M
2 DYLAN WILLETT STEPHENVILLE TX 229 99 M 1 99-99 17:35.7 5:10/M
3 JAMES POLASEK 32 99 M 2 99-99 17:35.7 5:10/M
4 ALEJANDRO BENITES 115 99 M 3 99-99 17:50.3 5:15/M
5 WILLIAM MAGANA STEPHENVILLE TX 245 16 M 1 15-18 19:14.0 5:39/M
6 BROOKS LEWIS BLUFFTON TX 231 99 M 4 99-99 19:28.5 5:44/M
7 LINDSEY HINTON 209 22 F 1 Top Fin 19:39.2 5:47/M
8 GARRETT COUNTS AZLE TX 251 99 M 5 99-99 20:00.7 5:53/M
9 JC JONES STEPHENVILLE TX 197 33 M 1 30-39 20:14.6 5:57/M
10 ALEX MEDRANO DUBLIN TX 249 21 M 1 19-29 20:39.3 6:04/M
11 CLINTON SIMSPON 202 17 M 2 15-18 20:46.3 6:06/M
12 JOSE SALINAS 180 99 M 6 99-99 21:11.3 6:14/M
13 JORDAN KINGSLEY KELLER TX 244 23 M 2 19-29 21:45.5 6:24/M
14 LAUREN GIFFIN STEPHENVILLE TX 257 23 F 1 19-29 21:59.1 6:28/M
15 GERON GOWDY 140 99 M 7 99-99 22:12.0 6:32/M
16 BRNADON LEMUS 203 18 M 3 15-18 22:21.8 6:34/M
17 DANA BRINKLEY STEPHENVILLE TX 205 45 M 1 40-49 22:29.8 6:37/M
18 HARULD RATHBURN STEPHENVILLE TX 269 54 M 1 50-59 22:55.7 6:44/M
19 NATHAN WILSON STEPHENVILLE TX 225 30 M 2 30-39 23:03.8 6:47/M
20 GLYNN WILSON STEPHENVILLE TX 226 62 M 1 60-98 23:06.9 6:48/M
21 JOANNA MACSAS STEPHENVILLE TX 250 99 F 1 99-99 23:11.3 6:49/M
22 BETHANY NELSON 167 22 F 2 19-29 23:31.9 6:55/M
23 LAURA CLENDENNEN STEPHENVILLE TX 128 25 F 3 19-29 23:33.9 6:56/M
24 TRAEANN SCHLEMMER STEPHENVILLE TX 183 99 F 2 99-99 23:41.0 6:58/M
25 KATIE BRIAN DUBLIN TX 121 24 F 4 19-29 24:02.8 7:04/M
26 TRAVIS SANDERS 181 99 M 8 99-99 24:26.9 7:11/M
27 WID KEELING RISING STAR TX 158 37 M 3 30-39 24:30.7 7:12/M
28 ROD PROFFITT 51 52 M 2 50-59 24:47.6 7:17/M
29 MARY ANN ARREOLA COMANCHE TX 111 46 F 1 40-49 25:03.2 7:22/M
30 JONATHAN COLLINS 268 9 M 1 0-10 25:12.0 7:25/M
31 JOBEY STONE STEPHENVILLE TX 221 39 F 1 30-39 25:16.0 7:26/M
32 PHILLIP HENSLEY HUMBLE TX 240 99 M 9 99-99 25:35.0 7:31/M
33 MATTIE PRUIETT 211 99 F 3 99-99 25:39.1 7:33/M
34 RAUL CARRILLO STEPHENVILLE TX 271 99 M 10 99-99 25:39.7 7:33/M
35 MADISON PEPPER 227 11 F 1 11-14 25:42.0 7:34/M
36 CINDY GIBSON COMANCHE TX 136 57 F 1 50-59 25:45.7 7:34/M
37 VICTORIA LOPEZ COMANCHE TX 267 10 F 1 0-10 25:47.0 7:35/M
38 JORDAN DAWSON STEPHENVILLE TX 274 99 F 4 99-99 25:55.5 7:37/M
39 JOEY JEWELL COMANCHE TX 238 41 M 2 40-49 25:58.2 7:38/M
40 GARRETT MEDFORD 163 22 M 3 19-29 26:18.9 7:44/M
41 MANDI STOKES 210 22 F 5 19-29 26:22.6 7:45/M
42 MAHRYA ADKINS 109 99 F 5 99-99 26:27.2 7:47/M
43 MEGHAN GASKAMP 135 99 F 6 99-99 26:27.4 7:47/M
44 RAUL SANDOVAL II 182 26 M 4 19-29 26:32.1 7:48/M
45 STEPHANIE SHIPMAN 185 31 F 2 30-39 26:32.7 7:48/M
46 AMBER DAVIS 130 24 F 6 19-29 27:05.4 7:58/M
47 LACY MASSEY GODLEY TX 222 99 M 11 99-99 27:12.0 8:00/M
48 SARAH FULFER 134 99 F 7 99-99 27:16.6 8:01/M
49 SARAH WARREN TOLAR TX 272 25 F 7 19-29 27:42.7 8:09/M
50 TYNE DEUSSEN 132 99 F 8 99-99 28:11.4 8:17/M
51 TRAVIS TEMPLE 239 99 M 12 99-99 28:21.3 8:20/M
52 LESLEY HORTON STEPHENVILLE TX 148 26 F 8 19-29 28:34.5 8:24/M
53 SHARLE TRIMBLE STEPHENVILLE TX 242 53 F 2 50-59 28:45.5 8:27/M
54 JESSICA JOHNSON 152 99 F 9 99-99 28:45.6 8:27/M
55 KENYA MITCHELL 165 47 F 2 40-49 28:47.2 8:28/M
56 KELSEY GRIFFIN 146 25 F 9 19-29 28:49.1 8:29/M
57 STACY LEWIS STEPHENVILLE TX 243 36 F 3 30-39 29:05.3 8:33/M
58 CASSANDRA HUTCHINS 150 28 F 10 19-29 29:14.5 8:36/M
59 KRYSTEN RUSSELL 179 24 F 11 19-29 29:18.8 8:37/M
60 HAYDEN HIGHTOWER 216 11 M 1 11-14 29:30.7 8:41/M
61 AVRY STOLZMAN STEPHENVILLE TX 255 99 F 10 99-99 29:33.0 8:41/M
62 DAKOTA HOWELL EASTLAND TX 256 99 M 13 99-99 29:33.3 8:41/M
63 SADIE PITTMAN 171 99 F 11 99-99 29:37.3 8:43/M
64 CANDY HUDGPETH GRANBURY TX 149 47 F 3 40-49 29:41.7 8:44/M
65 SAMANTHA BUEHLER 219 99 F 12 99-99 29:44.9 8:45/M
66 ANGELICA DEANDA 131 99 F 13 99-99 29:55.5 8:48/M
67 RILEY HATCH STEPHENVILLE TX 247 99 F 14 99-99 29:56.0 8:48/M
68 KELSIE GRAY 141 99 F 15 99-99 29:56.0 8:48/M
69 MARK PLUGGE 208 54 M 3 50-59 30:01.3 8:50/M
70 VANESA MEDRANO DUBLIN TX 248 16 F 1 15-18 30:09.4 8:52/M
71 KELLY TAYLOR COMANCHE TX 191 53 F 3 50-59 30:10.1 8:52/M
72 KEVIN HERRING 204 21 M 5 19-29 30:32.2 8:59/M
73 LISA RICE 176 50 F 4 50-59 30:35.3 9:00/M
74 SARAH PHILLIPS STEPHENVILLE TX 246 99 F 16 99-99 30:42.6 9:02/M
75 MATTHEW HALEY STEPHENVILLE TX 258 13 M 2 11-14 30:43.6 9:02/M
76 MEGHAN HOKANSON STEPHENVILLE TX 147 99 F 17 99-99 30:45.1 9:03/M
77 CASIE MORGAN 166 99 F 18 99-99 30:48.9 9:04/M
78 NIKKI EDGAR STEPHENVILLE TX 260 99 F 19 99-99 30:50.3 9:04/M
79 LAUREN RICE 175 99 F 20 99-99 30:52.5 9:05/M
80 JOHN RANGEL 196 30 M 4 30-39 30:57.3 9:06/M
81 RACHEL GRIDER STEPHENVILLE TX 145 99 F 21 99-99 31:09.5 9:10/M
82 CRYSTAL GRIDER STEPHENVILLE TX 144 99 F 22 99-99 31:10.2 9:10/M
83 CALLI POMROY 264 99 F 23 99-99 31:35.3 9:17/M
84 KELLY OKEEFE 262 99 F 24 99-99 31:40.8 9:19/M
85 LAURA KOUNS DUBLIN TX 159 29 F 12 19-29 31:41.9 9:19/M
86 GARRY ZUBAL 195 45 M 3 40-49 31:45.2 9:20/M
87 CHRISTIE GOODLETT GRANBURY TX 139 54 F 5 50-59 31:51.2 9:22/M
88 CINDY BEATY DELEON TX 114 48 F 4 40-49 31:54.1 9:23/M
89 ROBBYE BERNARD WILLS POINT TX 241 25 F 13 19-29 32:07.4 9:27/M
90 JAKE GIBSON COMANCHE TX 137 30 M 5 30-39 32:19.9 9:30/M
91 JOHN COX 129 45 M 4 40-49 32:29.0 9:33/M
92 MORGAN DEAN STEPHENVILLE TX 220 99 F 25 99-99 32:31.6 9:34/M
93 ALEX FURR 217 20 F 14 19-29 32:45.3 9:38/M
94 TESS BACHTEL 112 99 F 26 99-99 32:54.9 9:41/M
95 AUSTIN FLORES 265 99 M 14 99-99 32:57.7 9:41/M
96 CATHERINE REID 174 99 F 27 99-99 32:58.2 9:42/M
97 CINDY BILL 237 48 F 5 40-49 33:04.9 9:44/M
98 KATELYN TULLEY 218 99 F 28 99-99 33:06.4 9:44/M
99 ERIN WARNER 193 25 F 15 19-29 33:06.7 9:44/M
100 ALIZE LOPEZ 266 9 F 2 0-10 33:11.5 9:46/M
 
Place Name City Bib No Age Gender Age Group Total Time Pace
101 DEANN O'CONNER GRANBURY TX 169 48 F 6 40-49 33:14.5 9:46/M
102 LISA MEDFORD 164 50 F 6 50-59 33:38.3 9:54/M
103 DREW WHITE 194 28 F 16 19-29 33:38.6 9:54/M
104 CATHERINE MANSKE 161 99 F 29 99-99 33:46.5 9:56/M
105 HALEY PATTERSON 170 99 F 30 99-99 33:46.5 9:56/M
106 LISA JACKSON STEPHENVILLE TX 263 38 F 4 30-39 34:11.7 10:03/M
107 TERRI GREENWAY 142 50 F 7 50-59 34:12.0 10:04/M
108 HELEN MAYBERY STEPHENVILLE TX 236 53 F 8 50-59 34:32.5 10:09/M
109 WHITNEY CARPENTER STEPHENVILLE TX 223 99 F 31 99-99 35:32.1 10:27/M
110 CHRISTYAN JONES 199 10 M 2 0-10 35:55.1 10:34/M
111 EILEEN HALEY STEPHENVILLE TX 259 50 F 9 50-59 35:57.2 10:34/M
112 ROBERT BRIAN 122 52 M 4 50-59 35:59.6 10:35/M
113 ANDREA LENAUER CARROLLTON TX 224 99 F 32 99-99 36:06.6 10:37/M
114 PIERSON SORRELLS 186 7 M 3 0-10 36:26.5 10:43/M
115 TAELON SORRELLS COMANCHE TX 187 9 M 4 0-10 36:27.3 10:43/M
116 JULIE BRINKLEY STEPHENVILLE TX 206 40 F 7 40-49 37:07.9 10:55/M
117 ELLINGTON BRINKLEY STEPHENVILLE TX 207 16 F 2 15-18 37:08.3 10:55/M
118 CYNTHIA CARTER STEPHENVILLE TX 126 42 F 8 40-49 37:28.5 11:01/M
119 NANCY HOLTSFORD 215 52 F 10 50-59 37:29.0 11:01/M
120 ANISHA STARK 188 29 F 17 19-29 38:43.8 11:23/M
121 CYNTHIA SEARS 184 40 F 9 40-49 38:53.1 11:26/M
122 AVERY JOHANNES 151 20 F 18 19-29 39:10.6 11:31/M
123 TROY THIBODEAUX 192 46 M 5 40-49 39:11.1 11:31/M
124 GRETA GOINS STEPHENVILLE TX 138 99 F 33 99-99 39:31.1 11:37/M
125 MARK BLAIR 118 48 M 6 40-49 39:38.6 11:39/M
126 SARAH KEELING RISING STAR TX 157 10 F 3 0-10 39:41.6 11:40/M
127 BROOKLYN JONES 198 11 F 2 11-14 39:52.4 11:44/M
128 CLINTON GREGORY 143 15 M 4 15-18 41:14.0 12:08/M
129 CAITLYN BENSON 116 8 F 4 0-10 41:18.9 12:09/M
130 GABRIEL MONTALUO STEPHENVILLE TX 228 99 M 15 99-99 42:02.9 12:22/M
131 LEVI SASSER STEPHENVILLE TX 254 27 M 6 19-29 43:27.8 12:47/M
132 LINDSEY SASSER STEPHENVILLE TX 253 28 F 19 19-29 44:01.2 12:57/M
133 RAQUEL FULFER 252 50 F 11 50-59 44:08.8 12:59/M
134 JOSIE BRUMBALOW 123 38 F 5 30-39 45:13.4 13:18/M
135 KATI KALLMAN 153 99 F 34 99-99 46:20.5 13:38/M
136 RAMIE RICHARDSON 177 99 F 35 99-99 46:20.6 13:38/M
137 KRISTIE BINT STEPHENVILLE TX 117 44 F 10 40-49 46:38.5 13:43/M
138 AMANDA MILLER STEPHENVILLE TX 261 30 F 6 30-39 46:38.7 13:43/M
139 ROBIN SIMPSON 201 49 F 11 40-49 46:46.3 13:45/M
140 ANGIE STRUBE DELEON TX 190 55 F 12 50-59 47:07.3 13:51/M
141 ANITA BRIAN 120 52 F 13 50-59 47:22.3 13:56/M
142 JAMES KEELING RISING STAR TX 156 12 M 3 11-14 47:24.6 13:56/M
143 DEANA WILLIAMS 214 48 F 12 40-49 47:44.6 14:02/M
144 WINDY STEMBRIDGE STEPHENVILLE TX 189 39 F 7 30-39 48:48.1 14:21/M
145 ANN BUOL 125 54 F 14 50-59 48:48.8 14:21/M
146 BEVERLY LEWIS GRANBURY TX 160 66 F 1 60-98 48:48.8 14:21/M
147 HAILEY CLARK GRANBURY TX 127 0 F 5 0-10 51:10.8 15:03/M
148 BELINDA NEWMAN 168 49 F 13 40-49 51:11.2 15:03/M
149 LINDA HEFLIN 273 49 F 14 40-49 51:53.9 15:16/M
150 ARWYN JONES 200 6 F 6 0-10 1:01:27.3 18:04/M
151 VICKIE JONES STEPHENVILLE TX 235 31 F 8 30-39 1:01:27.4 18:04/M
152 BRISTYN JONES STEPHENVILLE TX 233 4 M 5 0-10 1:01:39.8 18:08/M
153 TRISTYN JONES STEPHENVILLE TX 234 4 F 7 0-10 1:01:40.2 18:08/M